Time;durP1;ratioP1;P1;durP2;ratioP2;P2;SDS_P1;SDS_P2;PMS_P1;PMS_P2;Temp;Humidity;BMP_temperature;BMP_pressure;BME280_temperature;BME280_humidity;BME280_pressure;Samples;Min_cycle;Max_cycle;Signal;HPM_P1;HPM_P2
2023/07/25 00:00:33;;;;;;;7.38;2.20;;;;;;;;;;5064638;28;20262;-72
2023/07/25 00:02:59;;;;;;;4.57;2.67;;;;;;;;;;5053130;28;20037;-72
2023/07/25 00:05:25;;;;;;;6.18;2.33;;;;;;;;;;5067829;28;20029;-72
2023/07/25 00:07:51;;;;;;;7.22;3.38;;;;;;;;;;5052317;28;20077;-73
2023/07/25 00:10:18;;;;;;;6.80;2.60;;;;;;;;;;5051840;28;20048;-72
2023/07/25 00:12:44;;;;;;;3.92;2.67;;;;;;;;;;5052991;28;20026;-72
2023/07/25 00:15:10;;;;;;;7.32;3.13;;;;;;;;;;5052770;28;20036;-72
2023/07/25 00:17:37;;;;;;;6.25;2.75;;;;;;;;;;5062670;28;20025;-72
2023/07/25 00:20:03;;;;;;;5.72;2.53;;;;;;;;;;5051386;28;20089;-72
2023/07/25 00:22:29;;;;;;;6.70;2.80;;;;;;;;;;5051741;28;21174;-72
2023/07/25 00:24:55;;;;;;;4.38;2.50;;;;;;;;;;5051122;28;20037;-72
2023/07/25 00:27:21;;;;;;;6.65;2.50;;;;;;;;;;5068494;28;20029;-72
2023/07/25 00:29:49;;;;;;;6.10;2.35;;;;;;;;;;5052114;28;20036;-72
2023/07/25 00:32:15;;;;;;;7.53;3.17;;;;;;;;;;5052146;28;20026;-72
2023/07/25 00:34:41;;;;;;;9.98;3.15;;;;;;;;;;5051672;28;20397;-72
2023/07/25 00:37:10;;;;;;;5.70;2.22;;;;;;;;;;5063035;28;20033;-72
2023/07/25 00:39:36;;;;;;;6.38;2.20;;;;;;;;;;5053567;28;20022;-72
2023/07/25 00:42:02;;;;;;;5.65;2.83;;;;;;;;;;5064191;28;20063;-72
2023/07/25 00:44:28;;;;;;;8.38;2.35;;;;;;;;;;5053639;28;20037;-72
2023/07/25 00:46:53;;;;;;;9.18;2.80;;;;;;;;;;5051238;28;20093;-72
2023/07/25 00:49:19;;;;;;;5.55;2.80;;;;;;;;;;5066852;28;20025;-72
2023/07/25 00:51:46;;;;;;;10.05;2.67;;;;;;;;;;5052850;28;20079;-72
2023/07/25 00:54:12;;;;;;;5.97;2.85;;;;;;;;;;5055249;28;20048;-72
2023/07/25 00:56:38;;;;;;;5.47;2.55;;;;;;;;;;5052073;28;20033;-72
2023/07/25 00:59:04;;;;;;;6.88;2.60;;;;;;;;;;5063651;28;20022;-72
2023/07/25 01:01:30;;;;;;;7.15;2.63;;;;;;;;;;5052310;28;20010;-72
2023/07/25 01:03:56;;;;;;;2.95;1.92;;;;;;;;;;5051744;28;20099;-72
2023/07/25 01:06:24;;;;;;;3.33;1.98;;;;;;;;;;5048550;28;20045;-72
2023/07/25 01:08:54;;;;;;;5.35;2.03;;;;;;;;;;5066864;28;20086;-72
2023/07/25 01:11:21;;;;;;;8.57;2.85;;;;;;;;;;5067413;28;20044;-73
2023/07/25 01:13:47;;;;;;;6.55;2.78;;;;;;;;;;5062609;28;20243;-72
2023/07/25 01:16:17;;;;;;;5.78;2.60;;;;;;;;;;5063191;28;20048;-72
2023/07/25 01:18:46;;;;;;;11.32;2.85;;;;;;;;;;5050775;28;20013;-73
2023/07/25 01:21:15;;;;;;;9.15;2.53;;;;;;;;;;5050922;28;20010;-72
2023/07/25 01:23:42;;;;;;;8.57;2.60;;;;;;;;;;5051005;28;20025;-72
2023/07/25 01:26:09;;;;;;;13.35;2.72;;;;;;;;;;5061043;28;20045;-72
2023/07/25 01:28:37;;;;;;;11.55;3.22;;;;;;;;;;5051780;28;20017;-72
2023/07/25 01:31:03;;;;;;;4.95;2.40;;;;;;;;;;5053926;28;20033;-72
2023/07/25 01:33:29;;;;;;;6.18;3.03;;;;;;;;;;5050529;28;20021;-73
2023/07/25 01:35:55;;;;;;;7.32;3.38;;;;;;;;;;5053145;28;20048;-74
2023/07/25 01:38:21;;;;;;;6.45;2.47;;;;;;;;;;5051336;28;20022;-72
2023/07/25 01:40:47;;;;;;;9.32;2.67;;;;;;;;;;5066354;28;20021;-72
2023/07/25 01:43:15;;;;;;;8.73;3.60;;;;;;;;;;5050172;28;20014;-72
2023/07/25 01:45:44;;;;;;;14.90;3.13;;;;;;;;;;5066953;28;20105;-72
2023/07/25 01:48:12;;;;;;;7.20;2.60;;;;;;;;;;5062436;28;20026;-72
2023/07/25 01:50:40;;;;;;;5.38;2.67;;;;;;;;;;5050057;28;20043;-72
2023/07/25 01:53:06;;;;;;;9.30;3.00;;;;;;;;;;5050298;28;20069;-72
2023/07/25 01:55:32;;;;;;;5.60;2.90;;;;;;;;;;5049745;28;20029;-72
2023/07/25 01:58:00;;;;;;;7.80;3.30;;;;;;;;;;5062932;28;20208;-72
2023/07/25 02:00:28;;;;;;;7.68;2.60;;;;;;;;;;5050142;28;20064;-72
2023/07/25 02:02:55;;;;;;;7.70;2.80;;;;;;;;;;5050533;28;20021;-72
2023/07/25 02:05:20;;;;;;;7.40;2.80;;;;;;;;;;5050572;28;20029;-72
2023/07/25 02:07:46;;;;;;;6.80;3.13;;;;;;;;;;5050318;28;20033;-72
2023/07/25 02:10:14;;;;;;;5.05;3.17;;;;;;;;;;5050558;28;20032;-72
2023/07/25 02:12:40;;;;;;;8.00;3.42;;;;;;;;;;5049870;28;20025;-72
2023/07/25 02:15:09;;;;;;;5.97;3.22;;;;;;;;;;5065289;28;20041;-72
2023/07/25 02:17:37;;;;;;;10.77;3.47;;;;;;;;;;5049655;28;20014;-72
2023/07/25 02:20:06;;;;;;;9.05;4.38;;;;;;;;;;5057368;28;20056;-72
2023/07/25 02:22:34;;;;;;;15.30;3.63;;;;;;;;;;5053083;28;20029;-72
2023/07/25 02:25:03;;;;;;;11.65;3.42;;;;;;;;;;5053306;28;20029;-72
2023/07/25 02:27:31;;;;;;;7.78;2.88;;;;;;;;;;5064735;28;20049;-72
2023/07/25 02:29:57;;;;;;;7.70;3.25;;;;;;;;;;5067144;28;20013;-72
2023/07/25 02:32:23;;;;;;;14.13;3.80;;;;;;;;;;5053807;28;20025;-72
2023/07/25 02:34:49;;;;;;;11.00;3.47;;;;;;;;;;5050888;28;20017;-73
2023/07/25 02:37:15;;;;;;;7.75;3.15;;;;;;;;;;5069478;28;20033;-72
2023/07/25 02:39:43;;;;;;;4.95;3.22;;;;;;;;;;5071060;28;20013;-72
2023/07/25 02:42:09;;;;;;;11.00;3.63;;;;;;;;;;5112312;22;20032;-72
2023/07/25 02:44:39;;;;;;;12.48;3.58;;;;;;;;;;5069426;28;20072;-72
2023/07/25 02:47:08;;;;;;;9.73;4.03;;;;;;;;;;5071894;28;20033;-72
2023/07/25 02:49:36;;;;;;;7.20;3.95;;;;;;;;;;5071834;28;20013;-72
2023/07/25 02:52:02;;;;;;;12.05;3.88;;;;;;;;;;5071426;28;20017;-72
2023/07/25 02:54:28;;;;;;;15.15;4.43;;;;;;;;;;5051796;28;20023;-72
2023/07/25 02:56:56;;;;;;;8.68;3.38;;;;;;;;;;5056440;28;20072;-72
2023/07/25 02:59:25;;;;;;;12.93;4.25;;;;;;;;;;5058980;28;20009;-72
2023/07/25 03:01:51;;;;;;;8.07;4.10;;;;;;;;;;5071953;28;20024;-72
2023/07/25 03:04:17;;;;;;;7.18;3.70;;;;;;;;;;5053112;28;20045;-72
2023/07/25 03:06:45;;;;;;;11.18;4.10;;;;;;;;;;5070680;28;20064;-73
2023/07/25 03:09:11;;;;;;;7.90;3.95;;;;;;;;;;5069356;28;20017;-72
2023/07/25 03:11:37;;;;;;;8.45;3.72;;;;;;;;;;5052706;28;20044;-72
2023/07/25 03:14:03;;;;;;;7.50;4.00;;;;;;;;;;5051320;28;21413;-72
2023/07/25 03:16:29;;;;;;;7.75;3.85;;;;;;;;;;5050416;28;20029;-72
2023/07/25 03:18:55;;;;;;;7.97;3.60;;;;;;;;;;5069534;28;20039;-72
2023/07/25 03:21:21;;;;;;;8.40;4.03;;;;;;;;;;5070548;28;20017;-72
2023/07/25 03:23:47;;;;;;;11.15;4.05;;;;;;;;;;5052104;28;20020;-72
2023/07/25 03:26:13;;;;;;;12.25;5.05;;;;;;;;;;5068675;28;20112;-72
2023/07/25 03:28:39;;;;;;;6.40;3.75;;;;;;;;;;5069411;28;20021;-72
2023/07/25 03:31:06;;;;;;;6.93;4.13;;;;;;;;;;5050261;28;20033;-73
2023/07/25 03:33:31;;;;;;;9.57;3.92;;;;;;;;;;5059756;28;20049;-72
2023/07/25 03:35:58;;;;;;;13.93;4.32;;;;;;;;;;5070488;28;20024;-72
2023/07/25 03:38:24;;;;;;;12.05;4.45;;;;;;;;;;5055958;28;20013;-72
2023/07/25 03:40:50;;;;;;;15.13;4.35;;;;;;;;;;5071227;28;20025;-72
2023/07/25 03:43:15;;;;;;;11.20;3.90;;;;;;;;;;5071762;28;20048;-72
2023/07/25 03:45:42;;;;;;;9.05;3.50;;;;;;;;;;5070218;28;20105;-72
2023/07/25 03:48:09;;;;;;;11.35;4.75;;;;;;;;;;5050718;28;20016;-72
2023/07/25 03:50:37;;;;;;;11.07;4.75;;;;;;;;;;5053631;28;20028;-72
2023/07/25 03:53:05;;;;;;;9.43;3.80;;;;;;;;;;5057034;28;20006;-72
2023/07/25 03:55:33;;;;;;;11.88;5.07;;;;;;;;;;5070637;28;20111;-73
2023/07/25 03:57:59;;;;;;;14.35;4.40;;;;;;;;;;5069162;28;20057;-72
2023/07/25 04:00:27;;;;;;;9.02;4.03;;;;;;;;;;5070291;28;20037;-72
2023/07/25 04:02:53;;;;;;;12.23;4.40;;;;;;;;;;5068856;28;20316;-72
2023/07/25 04:05:19;;;;;;;7.82;4.00;;;;;;;;;;5050963;28;20025;-72
2023/07/25 04:07:45;;;;;;;10.48;4.07;;;;;;;;;;5048144;28;20029;-72
2023/07/25 04:10:11;;;;;;;13.23;4.45;;;;;;;;;;5057167;28;20713;-72
2023/07/25 04:12:37;;;;;;;7.32;3.85;;;;;;;;;;5069298;28;20036;-72
2023/07/25 04:15:05;;;;;;;16.23;4.97;;;;;;;;;;5048953;28;20025;-72
2023/07/25 04:17:34;;;;;;;20.35;4.13;;;;;;;;;;5054675;28;20037;-72
2023/07/25 04:19:59;;;;;;;11.95;4.18;;;;;;;;;;5055246;28;20021;-72
2023/07/25 04:22:25;;;;;;;8.93;4.30;;;;;;;;;;5049268;28;20033;-72
2023/07/25 04:24:54;;;;;;;7.85;3.22;;;;;;;;;;5053872;28;20283;-72
2023/07/25 04:27:20;;;;;;;8.32;3.97;;;;;;;;;;5049073;28;20041;-72
2023/07/25 04:29:46;;;;;;;9.05;4.03;;;;;;;;;;5055251;28;20025;-72
2023/07/25 04:32:12;;;;;;;9.52;4.03;;;;;;;;;;5049754;28;20024;-73
2023/07/25 04:34:38;;;;;;;17.60;5.05;;;;;;;;;;5058143;28;20024;-73
2023/07/25 04:37:06;;;;;;;13.88;3.88;;;;;;;;;;5070096;28;20059;-73
2023/07/25 04:39:34;;;;;;;8.20;4.35;;;;;;;;;;5068233;28;20017;-72
2023/07/25 04:42:00;;;;;;;15.52;5.13;;;;;;;;;;5048266;28;20029;-72
2023/07/25 04:44:26;;;;;;;17.83;4.15;;;;;;;;;;5048460;28;20390;-72
2023/07/25 04:46:54;;;;;;;13.13;4.45;;;;;;;;;;5068938;28;20058;-73
2023/07/25 04:49:20;;;;;;;16.23;3.95;;;;;;;;;;5069949;28;20021;-72
2023/07/25 04:51:46;;;;;;;7.28;3.88;;;;;;;;;;5068960;28;20029;-72
2023/07/25 04:54:12;;;;;;;12.65;4.35;;;;;;;;;;5069150;28;20017;-72
2023/07/25 04:56:40;;;;;;;16.67;4.45;;;;;;;;;;5050190;28;20025;-72
2023/07/25 04:59:09;;;;;;;16.05;4.60;;;;;;;;;;5049344;28;20021;-72
2023/07/25 05:01:35;;;;;;;9.88;4.60;;;;;;;;;;5056686;28;20040;-73
2023/07/25 05:04:05;;;;;;;11.35;4.30;;;;;;;;;;5067920;28;20017;-72
2023/07/25 05:06:31;;;;;;;12.23;4.55;;;;;;;;;;5069754;28;20044;-73
2023/07/25 05:08:57;;;;;;;12.38;4.20;;;;;;;;;;5058012;28;20028;-72
2023/07/25 05:11:23;;;;;;;14.77;4.47;;;;;;;;;;5066231;28;20043;-72
2023/07/25 05:13:49;;;;;;;14.18;4.68;;;;;;;;;;5067478;28;20036;-73
2023/07/25 05:16:15;;;;;;;12.02;4.40;;;;;;;;;;5049307;28;20025;-72
2023/07/25 05:18:41;;;;;;;9.18;4.32;;;;;;;;;;5069699;28;20030;-72
2023/07/25 05:21:07;;;;;;;8.98;3.55;;;;;;;;;;5056707;28;20012;-72
2023/07/25 05:23:33;;;;;;;18.95;4.45;;;;;;;;;;5051646;28;20044;-74
2023/07/25 05:25:59;;;;;;;7.80;4.18;;;;;;;;;;5057949;28;20048;-72
2023/07/25 05:28:25;;;;;;;11.07;4.75;;;;;;;;;;5048874;28;20033;-73
2023/07/25 05:30:51;;;;;;;8.35;4.82;;;;;;;;;;5068612;28;20025;-72
2023/07/25 05:33:19;;;;;;;6.70;3.80;;;;;;;;;;5069088;28;20024;-72
2023/07/25 05:35:45;;;;;;;10.65;4.28;;;;;;;;;;5068535;28;20041;-73
2023/07/25 05:38:14;;;;;;;10.30;4.18;;;;;;;;;;5049852;28;20017;-73
2023/07/25 05:40:40;;;;;;;8.00;4.03;;;;;;;;;;5048103;28;20015;-72
2023/07/25 05:43:06;;;;;;;13.63;4.20;;;;;;;;;;5052967;28;20032;-72
2023/07/25 05:45:31;;;;;;;8.95;3.95;;;;;;;;;;5052574;28;20043;-73
2023/07/25 05:47:57;;;;;;;11.23;3.63;;;;;;;;;;5055956;28;20051;-72
2023/07/25 05:50:23;;;;;;;6.90;3.20;;;;;;;;;;5048614;28;20017;-72
2023/07/25 05:52:49;;;;;;;13.20;3.80;;;;;;;;;;5057055;28;20048;-72
2023/07/25 05:55:15;;;;;;;6.55;3.70;;;;;;;;;;5072705;28;20031;-72
2023/07/25 05:57:44;;;;;;;11.02;3.47;;;;;;;;;;5053508;28;20032;-72
2023/07/25 06:00:10;;;;;;;6.88;3.47;;;;;;;;;;5051561;28;20033;-74
2023/07/25 06:02:36;;;;;;;10.77;3.45;;;;;;;;;;5052523;28;20021;-73
2023/07/25 06:05:02;;;;;;;12.90;3.22;;;;;;;;;;5073418;28;20024;-73
2023/07/25 06:07:28;;;;;;;6.22;2.85;;;;;;;;;;5050263;28;20097;-72
2023/07/25 06:09:54;;;;;;;9.43;2.95;;;;;;;;;;5070562;28;20060;-72
2023/07/25 06:12:22;;;;;;;8.93;3.30;;;;;;;;;;5055481;28;20036;-73
2023/07/25 06:14:48;;;;;;;7.53;3.13;;;;;;;;;;5072977;28;20025;-73
2023/07/25 06:17:14;;;;;;;5.45;2.95;;;;;;;;;;5071975;28;20035;-73
2023/07/25 06:19:40;;;;;;;8.05;3.25;;;;;;;;;;5071335;28;20025;-73
2023/07/25 06:22:06;;;;;;;10.55;2.70;;;;;;;;;;5071754;28;20054;-72
2023/07/25 06:24:32;;;;;;;5.97;2.70;;;;;;;;;;5073057;28;20017;-72
2023/07/25 06:26:58;;;;;;;9.07;2.88;;;;;;;;;;5052667;28;20029;-72
2023/07/25 06:29:24;;;;;;;7.78;2.60;;;;;;;;;;5052501;28;20089;-72
2023/07/25 06:31:50;;;;;;;5.10;1.80;;;;;;;;;;5071752;28;20045;-72
2023/07/25 06:34:16;;;;;;;8.15;2.58;;;;;;;;;;5070700;28;20025;-72
2023/07/25 06:36:42;;;;;;;7.95;2.65;;;;;;;;;;5069296;28;20381;-72
2023/07/25 06:39:11;;;;;;;14.00;2.80;;;;;;;;;;5052299;28;20040;-73
2023/07/25 06:41:39;;;;;;;6.75;3.10;;;;;;;;;;5068681;28;20029;-72
2023/07/25 06:44:05;;;;;;;7.30;2.58;;;;;;;;;;5052244;28;20021;-72
2023/07/25 06:46:34;;;;;;;9.88;3.05;;;;;;;;;;5069911;28;20029;-72
2023/07/25 06:49:02;;;;;;;11.45;2.63;;;;;;;;;;5055160;28;20037;-73
2023/07/25 06:51:31;;;;;;;9.68;2.17;;;;;;;;;;5051638;28;20036;-73
2023/07/25 06:53:57;;;;;;;7.70;1.80;;;;;;;;;;5067865;28;20013;-73
2023/07/25 06:56:25;;;;;;;9.57;5.20;;;;;;;;;;5052053;28;20039;-73
2023/07/25 06:58:51;;;;;;;6.47;1.65;;;;;;;;;;5049100;28;20025;-73
2023/07/25 07:01:17;;;;;;;6.07;2.03;;;;;;;;;;5051140;28;20021;-73
2023/07/25 07:03:43;;;;;;;7.05;1.90;;;;;;;;;;5071254;28;20032;-73
2023/07/25 07:06:09;;;;;;;8.13;2.30;;;;;;;;;;5068273;28;20051;-73
2023/07/25 07:08:35;;;;;;;7.32;2.35;;;;;;;;;;5070175;28;20029;-73
2023/07/25 07:11:01;;;;;;;9.68;2.55;;;;;;;;;;5050382;28;20048;-73
2023/07/25 07:13:27;;;;;;;8.80;2.03;;;;;;;;;;5056990;28;20009;-73
2023/07/25 07:15:53;;;;;;;9.07;2.13;;;;;;;;;;5070587;28;20021;-73
2023/07/25 07:18:19;;;;;;;7.22;2.40;;;;;;;;;;5069956;28;20022;-73
2023/07/25 07:20:47;;;;;;;10.20;2.13;;;;;;;;;;5067515;28;20376;-73
2023/07/25 07:23:13;;;;;;;6.75;1.58;;;;;;;;;;5050750;28;20021;-73
2023/07/25 07:25:39;;;;;;;5.35;1.65;;;;;;;;;;5066464;28;20811;-73
2023/07/25 07:28:05;;;;;;;10.00;1.85;;;;;;;;;;5049578;28;20037;-73
2023/07/25 07:30:31;;;;;;;8.07;1.90;;;;;;;;;;5055972;28;20036;-72
2023/07/25 07:32:57;;;;;;;9.60;2.17;;;;;;;;;;5050534;28;20038;-74
2023/07/25 07:35:25;;;;;;;7.70;2.15;;;;;;;;;;5067915;28;20021;-73
2023/07/25 07:37:51;;;;;;;8.82;1.98;;;;;;;;;;5069554;28;20017;-73
2023/07/25 07:40:17;;;;;;;7.32;1.48;;;;;;;;;;5068863;28;20032;-73
2023/07/25 07:42:43;;;;;;;8.20;2.03;;;;;;;;;;5050642;28;20037;-73
2023/07/25 07:45:09;;;;;;;7.85;1.80;;;;;;;;;;5068370;28;20039;-73
2023/07/25 07:47:35;;;;;;;7.43;1.90;;;;;;;;;;5070214;28;20032;-73
2023/07/25 07:50:01;;;;;;;8.52;1.67;;;;;;;;;;5068633;28;20081;-73
2023/07/25 07:52:29;;;;;;;5.60;1.50;;;;;;;;;;5048736;28;20600;-72
2023/07/25 07:54:56;;;;;;;13.98;2.15;;;;;;;;;;5057629;28;20067;-72
2023/07/25 07:57:22;;;;;;;7.30;1.88;;;;;;;;;;5068805;28;20021;-72
2023/07/25 07:59:48;;;;;;;3.83;1.48;;;;;;;;;;5069962;28;20048;-72
2023/07/25 08:02:14;;;;;;;4.93;1.63;;;;;;;;;;5069947;28;20428;-72
2023/07/25 08:04:42;;;;;;;7.57;1.73;;;;;;;;;;5066403;28;20029;-71
2023/07/25 08:07:08;;;;;;;9.10;1.92;;;;;;;;;;5069463;28;20044;-71
2023/07/25 08:09:34;;;;;;;5.70;2.08;;;;;;;;;;5069657;28;20334;-71
2023/07/25 08:12:03;;;;;;;4.70;1.35;;;;;;;;;;5069479;28;20037;-71
2023/07/25 08:14:31;;;;;;;9.50;1.73;;;;;;;;;;5068417;28;20079;-71
2023/07/25 08:16:57;;;;;;;9.93;2.00;;;;;;;;;;5068948;28;20044;-71
2023/07/25 08:19:23;;;;;;;8.02;1.88;;;;;;;;;;5067959;28;20029;-71
2023/07/25 08:21:54;;;;;;;5.20;1.88;;;;;;;;;;5068603;28;20093;-71
2023/07/25 08:24:20;;;;;;;7.33;2.43;;;;;;;;;;5057590;28;20055;-72
2023/07/25 08:26:46;;;;;;;7.65;1.80;;;;;;;;;;5049088;28;20029;-72
2023/07/25 08:29:15;;;;;;;7.97;2.22;;;;;;;;;;5068851;28;20028;-72
2023/07/25 08:31:41;;;;;;;6.00;2.05;;;;;;;;;;5066565;28;20033;-71
2023/07/25 08:34:06;;;;;;;3.58;1.40;;;;;;;;;;5048358;28;20039;-72
2023/07/25 08:36:35;;;;;;;7.90;2.25;;;;;;;;;;5069271;28;20059;-73
2023/07/25 08:39:01;;;;;;;6.32;2.03;;;;;;;;;;5069255;28;20032;-73
2023/07/25 08:41:30;;;;;;;9.27;1.88;;;;;;;;;;5068196;28;20017;-72
2023/07/25 08:43:59;;;;;;;4.25;1.35;;;;;;;;;;5070115;28;20029;-72
2023/07/25 08:46:27;;;;;;;12.65;1.83;;;;;;;;;;5067818;28;20056;-72
2023/07/25 08:48:55;;;;;;;7.72;1.80;;;;;;;;;;5048651;28;20042;-72
2023/07/25 08:51:22;;;;;;;5.80;1.38;;;;;;;;;;5058320;28;20025;-71
2023/07/25 08:54:08;;;;;;;5.95;1.55;;;;;;;;;;5057704;28;20051;-72
2023/07/25 08:56:35;;;;;;;6.65;1.80;;;;;;;;;;5049516;28;20335;-73
2023/07/25 08:59:05;;;;;;;12.60;2.60;;;;;;;;;;5065737;28;20089;-72
2023/07/25 09:01:32;;;;;;;4.72;1.23;;;;;;;;;;5069213;28;20016;-72
2023/07/25 09:03:59;;;;;;;5.68;1.20;;;;;;;;;;5050568;28;20025;-72
2023/07/25 09:06:25;;;;;;;10.88;1.85;;;;;;;;;;5067045;28;20035;-72
2023/07/25 09:08:51;;;;;;;6.85;1.70;;;;;;;;;;5050555;28;20026;-72
2023/07/25 09:11:19;;;;;;;7.30;1.50;;;;;;;;;;5047825;28;20810;-72
2023/07/25 09:13:48;;;;;;;8.70;1.40;;;;;;;;;;5063703;28;20029;-72
2023/07/25 09:16:14;;;;;;;5.80;2.10;;;;;;;;;;5068035;28;20029;-72
2023/07/25 09:18:42;;;;;;;7.03;1.77;;;;;;;;;;5069138;28;20128;-72
2023/07/25 09:21:09;;;;;;;14.75;1.50;;;;;;;;;;5067208;28;20079;-72
2023/07/25 09:23:35;;;;;;;7.80;2.03;;;;;;;;;;5067337;28;20040;-72
2023/07/25 09:26:05;;;;;;;6.80;1.58;;;;;;;;;;5068565;28;20040;-72
2023/07/25 09:28:33;;;;;;;7.60;1.65;;;;;;;;;;5067532;28;20021;-72
2023/07/25 09:31:07;;;;;;;4.85;1.48;;;;;;;;;;5047456;28;20029;-72
2023/07/25 09:33:33;;;;;;;8.85;2.00;;;;;;;;;;5066055;28;20022;-72
2023/07/25 09:36:01;;;;;;;3.85;1.20;;;;;;;;;;5067683;28;20036;-72
2023/07/25 09:38:27;;;;;;;4.95;1.38;;;;;;;;;;5066689;28;20021;-72
2023/07/25 09:40:53;;;;;;;7.97;1.60;;;;;;;;;;5067468;28;20040;-72
2023/07/25 09:43:23;;;;;;;4.03;1.52;;;;;;;;;;5066667;28;20041;-72
2023/07/25 09:45:50;;;;;;;6.13;1.27;;;;;;;;;;5067200;28;20048;-72
2023/07/25 09:48:16;;;;;;;6.63;1.58;;;;;;;;;;5069358;28;20021;-72
2023/07/25 09:50:45;;;;;;;9.57;1.40;;;;;;;;;;5066985;28;20017;-72
2023/07/25 09:53:12;;;;;;;8.27;1.80;;;;;;;;;;5066026;28;20036;-72
2023/07/25 09:55:38;;;;;;;3.80;1.08;;;;;;;;;;5049635;28;20119;-72
2023/07/25 09:58:05;;;;;;;4.38;1.30;;;;;;;;;;5053303;28;20092;-72
2023/07/25 10:00:31;;;;;;;5.28;2.17;;;;;;;;;;5069254;28;20073;-72
2023/07/25 10:02:58;;;;;;;6.72;1.65;;;;;;;;;;5049163;28;20097;-72
2023/07/25 10:05:25;;;;;;;7.30;1.60;;;;;;;;;;5048092;28;20643;-72
2023/07/25 10:07:52;;;;;;;6.15;1.60;;;;;;;;;;5047297;28;20182;-72
2023/07/25 10:10:19;;;;;;;6.45;1.55;;;;;;;;;;5066834;28;20033;-72
2023/07/25 10:12:45;;;;;;;5.28;1.05;;;;;;;;;;5068531;28;20021;-72
2023/07/25 10:15:12;;;;;;;6.63;1.30;;;;;;;;;;5048530;28;20040;-72
2023/07/25 10:17:38;;;;;;;4.95;1.50;;;;;;;;;;5065656;28;20141;-72
2023/07/25 10:20:08;;;;;;;4.95;1.20;;;;;;;;;;5065779;28;20029;-71
2023/07/25 10:22:34;;;;;;;4.95;1.30;;;;;;;;;;5046985;28;20021;-73
2023/07/25 10:25:00;;;;;;;8.10;2.00;;;;;;;;;;5065205;28;20029;-72
2023/07/25 10:27:29;;;;;;;3.78;1.30;;;;;;;;;;5047715;28;20104;-72
2023/07/25 10:29:58;;;;;;;3.75;1.58;;;;;;;;;;5068440;28;20013;-72
2023/07/25 10:32:45;;;;;;;7.82;1.85;;;;;;;;;;5066325;28;20025;-72
2023/07/25 10:35:11;;;;;;;7.97;2.25;;;;;;;;;;5057000;28;20021;-72
2023/07/25 10:37:43;;;;;;;9.93;2.42;;;;;;;;;;5049447;28;20016;-72
2023/07/25 10:40:12;;;;;;;5.47;1.40;;;;;;;;;;5070131;28;20391;-72
2023/07/25 10:42:44;;;;;;;5.80;1.80;;;;;;;;;;5071631;28;20039;-73
2023/07/25 10:45:31;;;;;;;11.90;2.40;;;;;;;;;;5070042;28;20029;-72
2023/07/25 10:47:59;;;;;;;4.70;1.77;;;;;;;;;;5060948;28;20017;-71
2023/07/25 10:50:27;;;;;;;7.18;2.15;;;;;;;;;;5071446;28;20043;-72
2023/07/25 10:52:53;;;;;;;8.05;1.98;;;;;;;;;;5052004;28;20025;-75
2023/07/25 10:55:19;;;;;;;6.35;1.85;;;;;;;;;;5070932;28;20055;-73
2023/07/25 10:58:07;;;;;;;7.13;1.95;;;;;;;;;;5050315;28;20029;-74
2023/07/25 11:00:36;;;;;;;6.60;2.20;;;;;;;;;;5070301;28;20052;-73
2023/07/25 11:03:21;;;;;;;4.13;1.85;;;;;;;;;;5071666;28;20017;-72
2023/07/25 11:05:50;;;;;;;10.50;2.33;;;;;;;;;;5070823;28;20300;-72
2023/07/25 11:08:16;;;;;;;4.95;2.10;;;;;;;;;;5054382;28;20029;-72
2023/07/25 11:10:42;;;;;;;5.10;1.58;;;;;;;;;;5049132;28;20033;-73
2023/07/25 11:13:12;;;;;;;10.23;2.50;;;;;;;;;;5048970;28;20036;-73
2023/07/25 11:15:39;;;;;;;7.78;1.48;;;;;;;;;;5062212;28;20021;-78
2023/07/25 11:18:06;;;;;;;5.85;1.35;;;;;;;;;;5052429;28;20875;-72
2023/07/25 11:20:32;;;;;;;5.05;1.20;;;;;;;;;;5069563;28;20029;-72
2023/07/25 11:22:59;;;;;;;5.57;1.40;;;;;;;;;;5070356;28;20037;-72
2023/07/25 11:25:27;;;;;;;3.00;1.27;;;;;;;;;;5070703;28;20032;-72
2023/07/25 11:27:53;;;;;;;6.85;1.77;;;;;;;;;;5069241;28;20021;-73
2023/07/25 11:30:19;;;;;;;3.33;1.05;;;;;;;;;;5038318;28;20044;-76
2023/07/25 11:32:50;;;;;;;7.65;1.45;;;;;;;;;;5049507;28;20395;-83
2023/07/25 11:35:16;;;;;;;9.90;1.65;;;;;;;;;;5033259;28;20449;-81
2023/07/25 11:37:46;;;;;;;11.70;1.58;;;;;;;;;;5050222;28;20037;-80
2023/07/25 11:40:18;;;;;;;4.03;1.30;;;;;;;;;;5021779;28;20045;-84
2023/07/25 11:42:46;;;;;;;5.32;1.50;;;;;;;;;;5041603;28;20033;-79
2023/07/25 11:45:12;;;;;;;3.67;1.52;;;;;;;;;;5043528;28;20033;-84
2023/07/25 11:47:39;;;;;;;6.80;1.60;;;;;;;;;;5044443;28;20033;-82
2023/07/25 11:50:08;;;;;;;3.58;1.00;;;;;;;;;;5026517;28;20370;-82
2023/07/25 11:52:35;;;;;;;5.20;1.15;;;;;;;;;;5028731;28;20029;-83
2023/07/25 11:55:01;;;;;;;7.25;1.30;;;;;;;;;;5047772;28;20044;-75
2023/07/25 11:57:27;;;;;;;10.10;1.98;;;;;;;;;;5026962;28;20098;-82
2023/07/25 11:59:54;;;;;;;2.95;1.25;;;;;;;;;;5024654;28;20060;-81
2023/07/25 12:02:22;;;;;;;5.07;1.67;;;;;;;;;;5040860;28;20041;-80
2023/07/25 12:04:48;;;;;;;5.47;1.50;;;;;;;;;;5036419;28;20457;-73
2023/07/25 12:07:17;;;;;;;5.93;2.03;;;;;;;;;;5045387;28;20024;-78
2023/07/25 12:09:53;;;;;;;5.88;1.90;;;;;;;;;;5064980;28;20040;-72
2023/07/25 12:12:20;;;;;;;8.93;1.20;;;;;;;;;;5052956;28;20008;-71
2023/07/25 12:14:55;;;;;;;5.05;1.02;;;;;;;;;;5072795;28;20045;-72
2023/07/25 12:17:21;;;;;;;3.95;1.00;;;;;;;;;;5070249;28;20017;-72
2023/07/25 12:19:54;;;;;;;8.50;1.98;;;;;;;;;;5069386;28;20025;-72
2023/07/25 12:22:20;;;;;;;;;;;;;;;;;;5050490;28;20044;-71
2023/07/25 12:24:46;;;;;;;8.45;1.60;;;;;;;;;;5051927;28;19901;-72
2023/07/25 12:27:19;;;;;;;7.90;1.65;;;;;;;;;;5054424;28;20028;-72
2023/07/25 12:29:45;;;;;;;4.93;1.33;;;;;;;;;;5057848;28;20040;-72
2023/07/25 12:32:13;;;;;;;7.00;1.77;;;;;;;;;;5052101;28;20025;-75
2023/07/25 12:34:39;;;;;;;2.83;0.82;;;;;;;;;;5069433;28;20040;-72
2023/07/25 12:37:06;;;;;;;5.63;1.15;;;;;;;;;;5061665;28;20059;-77
2023/07/25 12:39:32;;;;;;;3.95;1.23;;;;;;;;;;5049552;28;20044;-74
2023/07/25 12:42:00;;;;;;;5.78;1.30;;;;;;;;;;5049721;28;20128;-72
2023/07/25 12:44:26;;;;;;;5.70;1.20;;;;;;;;;;5069520;28;20037;-71
2023/07/25 12:46:54;;;;;;;11.90;1.70;;;;;;;;;;5054116;28;20097;-71
2023/07/25 12:49:22;;;;;;;5.57;1.25;;;;;;;;;;5071209;28;20020;-71
2023/07/25 12:51:52;;;;;;;5.68;1.35;;;;;;;;;;5068730;28;20021;-72
2023/07/25 12:54:18;;;;;;;8.07;1.27;;;;;;;;;;5051763;28;20033;-71
2023/07/25 12:56:44;;;;;;;6.68;1.10;;;;;;;;;;5070144;28;20075;-71
2023/07/25 12:59:12;;;;;;;15.40;1.83;;;;;;;;;;5070097;28;20025;-71
2023/07/25 13:01:38;;;;;;;7.35;1.67;;;;;;;;;;5068602;28;20013;-71
2023/07/25 13:04:04;;;;;;;5.00;0.98;;;;;;;;;;5051543;28;20057;-70
2023/07/25 13:06:30;;;;;;;12.77;2.08;;;;;;;;;;5069952;28;20070;-71
2023/07/25 13:08:56;;;;;;;3.30;1.27;;;;;;;;;;5068932;28;20017;-71
2023/07/25 13:11:22;;;;;;;4.90;1.02;;;;;;;;;;5070427;28;20021;-71
2023/07/25 13:13:48;;;;;;;5.00;1.45;;;;;;;;;;5068972;28;20009;-71
2023/07/25 13:16:14;;;;;;;7.35;1.65;;;;;;;;;;5055959;28;20048;-71
2023/07/25 13:18:43;;;;;;;6.05;1.83;;;;;;;;;;5052885;28;20024;-71
2023/07/25 13:21:09;;;;;;;10.75;1.73;;;;;;;;;;5067758;28;20089;-71
2023/07/25 13:23:37;;;;;;;7.88;2.35;;;;;;;;;;5051733;28;20026;-72
2023/07/25 13:26:03;;;;;;;5.28;1.52;;;;;;;;;;5070129;28;20044;-72
2023/07/25 13:28:29;;;;;;;10.07;1.60;;;;;;;;;;5067320;28;20055;-72
2023/07/25 13:30:55;;;;;;;5.43;1.70;;;;;;;;;;5067035;28;20068;-72
2023/07/25 13:33:23;;;;;;;5.40;1.30;;;;;;;;;;5068084;28;20044;-71
2023/07/25 13:35:51;;;;;;;5.90;1.10;;;;;;;;;;5071424;28;20017;-71
2023/07/25 13:38:20;;;;;;;8.85;1.17;;;;;;;;;;5055718;28;20107;-72
2023/07/25 13:40:48;;;;;;;6.28;1.30;;;;;;;;;;5053128;28;20284;-71
2023/07/25 13:43:14;;;;;;;4.63;1.35;;;;;;;;;;5069964;28;20111;-72
2023/07/25 13:45:43;;;;;;;6.32;1.40;;;;;;;;;;5067537;28;20034;-72
2023/07/25 13:48:09;;;;;;;3.55;1.00;;;;;;;;;;5069903;28;20028;-72
2023/07/25 13:50:37;;;;;;;3.75;1.20;;;;;;;;;;5069522;28;20013;-72
2023/07/25 13:53:03;;;;;;;4.10;1.05;;;;;;;;;;5051415;28;20104;-72
2023/07/25 13:55:31;;;;;;;6.30;1.17;;;;;;;;;;5066696;28;20030;-73
2023/07/25 13:57:57;;;;;;;10.00;1.80;;;;;;;;;;5044831;28;20029;-79
2023/07/25 14:00:26;;;;;;;3.72;1.20;;;;;;;;;;5029869;28;20054;-80
2023/07/25 14:02:52;;;;;;;6.30;0.90;;;;;;;;;;5041124;28;21429;-83
2023/07/25 14:05:18;;;;;;;4.43;0.80;;;;;;;;;;5046438;28;20037;-86
2023/07/25 14:07:44;;;;;;;5.57;1.23;;;;;;;;;;5019259;28;20037;-81
2023/07/25 14:10:10;;;;;;;6.95;0.85;;;;;;;;;;5025735;28;20042;-86
2023/07/25 14:12:36;;;;;;;6.55;0.90;;;;;;;;;;5020234;28;20040;-82
2023/07/25 14:15:04;;;;;;;3.05;0.90;;;;;;;;;;5028373;28;20064;-82
2023/07/25 14:17:30;;;;;;;5.35;1.05;;;;;;;;;;5057625;28;20243;-74
2023/07/25 14:19:56;;;;;;;7.43;0.75;;;;;;;;;;5073251;28;20041;-73
2023/07/25 14:22:22;;;;;;;4.07;0.90;;;;;;;;;;5072623;28;20017;-73
2023/07/25 14:24:51;;;;;;;3.65;1.10;;;;;;;;;;5050426;28;20040;-73
2023/07/25 14:27:20;;;;;;;5.45;1.30;;;;;;;;;;5061890;28;20100;-78
2023/07/25 14:29:48;;;;;;;4.93;1.35;;;;;;;;;;5058463;28;20036;-82
2023/07/25 14:32:16;;;;;;;3.70;1.02;;;;;;;;;;5068476;28;20029;-72
2023/07/25 14:34:42;;;;;;;3.72;1.27;;;;;;;;;;5069606;28;20013;-72
2023/07/25 14:37:08;;;;;;;5.93;0.95;;;;;;;;;;5067573;28;20051;-72
2023/07/25 14:39:34;;;;;;;3.33;0.88;;;;;;;;;;5052721;28;20441;-86